Time;durP1;ratioP1;P1;durP2;ratioP2;P2;SDS_P1;SDS_P2;PMS_P1;PMS_P2;Temp;Humidity;BMP_temperature;BMP_pressure;BME280_temperature;BME280_humidity;BME280_pressure;Samples;Min_cycle;Max_cycle;Signal;HPM_P1;HPM_P2
2021/08/30 00:01:02;;;;;;;;;;;;;;;24.73;62.86;100273.06;5014044;28;1168;-48
2021/08/30 00:03:30;;;;;;;;;;;;;;;24.71;63.25;100283.22;5013683;28;1910;-47
2021/08/30 00:05:56;;;;;;;;;;;;;;;24.68;63.25;100270.91;5013942;28;1088;-48
2021/08/30 00:08:22;;;;;;;;;;;;;;;24.71;62.70;100285.94;5013859;28;1076;-48
2021/08/30 00:10:49;;;;;;;;;;;;;;;24.72;63.36;100288.44;5014207;28;1008;-48
2021/08/30 00:13:15;;;;;;;;;;;;;;;24.73;63.64;100283.88;5014180;28;1045;-48
2021/08/30 00:15:42;;;;;;;;;;;;;;;24.74;63.85;100313.44;5014395;28;1094;-47
2021/08/30 00:18:08;;;;;;;;;;;;;;;24.71;63.57;100300.31;5013836;28;1200;-48
2021/08/30 00:20:36;;;;;;;;;;;;;;;24.75;63.34;100316.97;5014025;28;1338;-47
2021/08/30 00:23:03;;;;;;;;;;;;;;;24.73;63.61;100319.03;5013992;28;1985;-47
2021/08/30 00:25:29;;;;;;;;;;;;;;;24.71;62.79;100310.25;5014043;28;1019;-48
2021/08/30 00:27:56;;;;;;;;;;;;;;;24.68;62.78;100310.66;5013694;28;1178;-48
2021/08/30 00:30:22;;;;;;;;;;;;;;;24.73;63.56;100321.72;5013701;28;1095;-47
2021/08/30 00:32:49;;;;;;;;;;;;;;;24.71;63.05;100319.22;5013942;28;1066;-48
2021/08/30 00:35:15;;;;;;;;;;;;;;;24.71;62.90;100321.94;5013967;28;999;-47
2021/08/30 00:37:45;;;;;;;;;;;;;;;24.73;63.74;100336.13;5013652;28;1178;-48
2021/08/30 00:40:12;;;;;;;;;;;;;;;24.72;63.10;100322.78;5015344;28;996;-48
2021/08/30 00:42:39;;;;;;;;;;;;;;;24.69;63.18;100320.41;5017620;28;1902;-48
2021/08/30 00:45:06;;;;;;;;;;;;;;;24.70;63.39;100338.34;5018056;28;1086;-47
2021/08/30 00:47:33;;;;;;;;;;;;;;;24.67;62.80;100320.63;5017897;28;1081;-47
2021/08/30 00:49:59;;;;;;;;;;;;;;;24.72;63.40;100341.69;5017833;28;1043;-47
2021/08/30 00:52:26;;;;;;;;;;;;;;;24.67;62.86;100319.75;5017494;28;1092;-48
2021/08/30 00:54:54;;;;;;;;;;;;;;;24.67;62.69;100325.16;5017448;28;1222;-47
2021/08/30 00:57:21;;;;;;;;;;;;;;;24.67;63.17;100334.16;5017859;28;1008;-48
2021/08/30 00:59:47;;;;;;;;;;;;;;;24.65;62.70;100311.84;5017363;28;1108;-48
2021/08/30 01:02:14;;;;;;;;;;;;;;;24.70;63.68;100344.56;5017055;28;1911;-48
2021/08/30 01:04:41;;;;;;;;;;;;;;;24.68;63.57;100343.09;5017250;28;931;-48
2021/08/30 01:07:12;;;;;;;;;;;;;;;24.70;62.97;100339.16;5018169;28;996;-48
2021/08/30 01:09:43;;;;;;;;;;;;;;;24.67;63.18;100339.56;5017471;28;1087;-48
2021/08/30 01:12:13;;;;;;;;;;;;;;;24.71;63.69;100340.00;5017436;28;1015;-48
2021/08/30 01:14:42;;;;;;;;;;;;;;;24.67;62.67;100335.97;5017645;28;1077;-48
2021/08/30 01:17:09;;;;;;;;;;;;;;;24.66;63.21;100321.63;5017548;28;1083;-48
2021/08/30 01:19:37;;;;;;;;;;;;;;;24.67;62.97;100326.03;5016893;28;1191;-48
2021/08/30 01:22:05;;;;;;;;;;;;;;;24.65;62.93;100329.91;5016905;28;1979;-47
2021/08/30 01:24:33;;;;;;;;;;;;;;;24.69;63.32;100342.03;5017212;28;1046;-48
2021/08/30 01:27:00;;;;;;;;;;;;;;;24.68;62.84;100334.97;5017154;28;1044;-48
2021/08/30 01:29:29;;;;;;;;;;;;;;;24.66;63.46;100340.56;5016803;28;1092;-48
2021/08/30 01:31:57;;;;;;;;;;;;;;;24.64;62.90;100341.78;5016963;28;1082;-48
2021/08/30 01:34:26;;;;;;;;;;;;;;;24.66;63.11;100335.16;5016729;28;1200;-47
2021/08/30 01:36:52;;;;;;;;;;;;;;;24.65;63.28;100324.50;5016941;28;1080;-47
2021/08/30 01:39:19;;;;;;;;;;;;;;;24.68;62.90;100352.03;5017767;28;1004;-47
2021/08/30 01:41:46;;;;;;;;;;;;;;;24.67;62.95;100344.97;5016866;28;1063;-47
2021/08/30 01:44:13;;;;;;;;;;;;;;;24.69;63.58;100350.16;5016899;28;1969;-48
2021/08/30 01:46:41;;;;;;;;;;;;;;;24.64;62.96;100347.19;5016777;28;998;-47
2021/08/30 01:49:09;;;;;;;;;;;;;;;24.64;63.74;100349.88;5016953;28;1003;-47
2021/08/30 01:51:37;;;;;;;;;;;;;;;24.66;63.38;100364.91;5016139;28;1124;-47
2021/08/30 01:54:04;;;;;;;;;;;;;;;24.68;63.28;100367.41;5016679;28;1078;-48
2021/08/30 01:56:32;;;;;;;;;;;;;;;24.66;62.87;100362.19;5016537;28;1097;-48
2021/08/30 02:01:45;;;;;;;;;;;;;;;24.63;63.08;100348.19;5127113;23;3572;-46
2021/08/30 02:04:11;;;;;;;;;;;;;;;24.65;62.72;100351.56;5036154;28;1906;-48
2021/08/30 02:06:39;;;;;;;;;;;;;;;24.64;62.84;100333.66;5036273;28;1117;-47
2021/08/30 02:09:06;;;;;;;;;;;;;;;24.61;62.88;100341.13;5036140;28;1069;-47
2021/08/30 02:11:33;;;;;;;;;;;;;;;24.64;63.69;100361.53;5035831;28;1067;-47
2021/08/30 02:14:00;;;;;;;;;;;;;;;24.59;62.90;100353.97;5035720;28;1087;-47
2021/08/30 02:16:27;;;;;;;;;;;;;;;24.61;62.70;100357.34;5035730;28;1127;-46
2021/08/30 02:18:58;;;;;;;;;;;;;;;24.67;62.78;100373.84;5036054;28;1063;-47
2021/08/30 02:21:29;;;;;;;;;;;;;;;24.64;63.31;100363.41;5035895;28;1003;-47
2021/08/30 02:23:58;;;;;;;;;;;;;;;24.64;62.90;100360.69;5036083;28;1910;-46
2021/08/30 02:26:27;;;;;;;;;;;;;;;24.62;62.94;100358.19;5035801;28;984;-47
2021/08/30 02:28:54;;;;;;;;;;;;;;;24.63;63.29;100367.13;5035544;28;1102;-47
2021/08/30 02:31:21;;;;;;;;;;;;;;;24.64;63.69;100376.94;5035506;28;1314;-47
2021/08/30 02:33:48;;;;;;;;;;;;;;;24.63;63.19;100369.81;5035724;28;991;-47
2021/08/30 02:36:15;;;;;;;;;;;;;;;24.62;62.76;100371.69;5035447;28;2045;-47
2021/08/30 02:38:44;;;;;;;;;;;;;;;24.59;63.19;100364.78;5035359;28;1139;-47
2021/08/30 02:41:12;;;;;;;;;;;;;;;24.60;62.88;100354.81;5035305;28;1174;-47
2021/08/30 02:43:38;;;;;;;;;;;;;;;24.64;63.16;100366.09;5035408;28;1910;-47
2021/08/30 02:46:05;;;;;;;;;;;;;;;24.63;63.01;100367.13;5036053;28;2059;-47
2021/08/30 02:48:32;;;;;;;;;;;;;;;24.59;63.23;100363.94;5035449;28;998;-47
2021/08/30 02:51:00;;;;;;;;;;;;;;;24.59;63.24;100358.53;5035095;28;951;-47
2021/08/30 02:53:27;;;;;;;;;;;;;;;24.64;62.89;100382.34;5034986;28;1166;-48
2021/08/30 02:55:54;;;;;;;;;;;;;;;24.61;63.43;100384.38;5035010;28;1099;-47
2021/08/30 02:58:22;;;;;;;;;;;;;;;24.60;62.98;100371.88;5034985;28;1066;-47
2021/08/30 03:00:49;;;;;;;;;;;;;;;24.59;62.81;100378.31;5034714;28;1295;-47
2021/08/30 03:03:16;;;;;;;;;;;;;;;24.57;62.74;100376.78;5033985;28;1902;-46
2021/08/30 03:05:43;;;;;;;;;;;;;;;24.56;62.85;100381.38;5034950;28;1111;-47
2021/08/30 03:08:09;;;;;;;;;;;;;;;24.56;63.21;100386.78;5035084;28;1077;-47
2021/08/30 03:10:37;;;;;;;;;;;;;;;24.60;62.91;100388.09;5035032;28;1077;-47
2021/08/30 03:13:06;;;;;;;;;;;;;;;24.60;63.33;100388.09;5034683;28;1150;-47
2021/08/30 03:15:34;;;;;;;;;;;;;;;24.58;62.86;100384.72;5034631;28;1080;-47
2021/08/30 03:18:02;;;;;;;;;;;;;;;24.58;63.78;100384.72;5034567;28;1055;-47
2021/08/30 03:20:29;;;;;;;;;;;;;;;24.60;63.65;100398.91;5034609;28;1099;-47
2021/08/30 03:22:58;;;;;;;;;;;;;;;24.60;63.10;100398.06;5034664;28;1906;-46
2021/08/30 03:25:27;;;;;;;;;;;;;;;24.59;62.92;100393.66;5034789;28;990;-46
2021/08/30 03:27:54;;;;;;;;;;;;;;;24.62;63.68;100401.44;5034716;28;1049;-47
2021/08/30 03:30:22;;;;;;;;;;;;;;;24.55;63.10;100393.22;5034557;28;1082;-47
2021/08/30 03:32:50;;;;;;;;;;;;;;;24.60;62.64;100404.31;5034597;28;1020;-47
2021/08/30 03:35:16;;;;;;;;;;;;;;;24.58;63.41;100419.88;5034256;28;1060;-47
2021/08/30 03:37:44;;;;;;;;;;;;;;;24.56;62.90;100407.56;5034527;28;1077;-47
2021/08/30 03:40:11;;;;;;;;;;;;;;;24.58;63.11;100411.75;5034457;28;1007;-47
2021/08/30 03:42:38;;;;;;;;;;;;;;;24.57;62.69;100414.63;5034040;28;1107;-47
2021/08/30 03:45:05;;;;;;;;;;;;;;;24.58;63.52;100405.53;5034060;28;1963;-47
2021/08/30 03:47:32;;;;;;;;;;;;;;;24.60;63.66;100427.81;5034326;28;1089;-47
2021/08/30 03:50:01;;;;;;;;;;;;;;;24.56;62.79;100421.91;5034296;28;963;-47
2021/08/30 03:52:28;;;;;;;;;;;;;;;24.60;63.38;100411.59;5034495;28;999;-47
2021/08/30 03:54:54;;;;;;;;;;;;;;;24.59;63.79;100412.59;5034231;28;1018;-47
2021/08/30 03:57:23;;;;;;;;;;;;;;;24.55;63.34;100409.44;5033905;28;1125;-47
2021/08/30 03:59:52;;;;;;;;;;;;;;;24.57;63.40;100411.94;5034172;28;1065;-47
2021/08/30 04:02:19;;;;;;;;;;;;;;;24.53;63.38;100394.41;5033671;28;1288;-47
2021/08/30 04:04:46;;;;;;;;;;;;;;;24.55;63.24;100417.53;5033645;28;1902;-47
2021/08/30 04:07:14;;;;;;;;;;;;;;;24.57;63.54;100430.84;5034052;28;1002;-47
2021/08/30 04:09:41;;;;;;;;;;;;;;;24.57;63.60;100414.63;5034026;28;1002;-47
2021/08/30 04:12:08;;;;;;;;;;;;;;;24.53;63.39;100406.06;5033999;28;1040;-47
2021/08/30 04:14:34;;;;;;;;;;;;;;;24.55;62.82;100428.34;5033614;28;1095;-47
2021/08/30 04:17:01;;;;;;;;;;;;;;;24.56;63.28;100424.63;5034032;28;1093;-47
2021/08/30 04:19:27;;;;;;;;;;;;;;;24.57;62.93;100429.03;5033574;28;1162;-47
2021/08/30 04:21:54;;;;;;;;;;;;;;;24.54;62.72;100420.44;5033569;28;1158;-47
2021/08/30 04:24:22;;;;;;;;;;;;;;;24.51;62.77;100428.88;5033754;28;1906;-46
2021/08/30 04:26:48;;;;;;;;;;;;;;;24.53;62.89;100433.09;5033478;28;1170;-47
2021/08/30 04:29:14;;;;;;;;;;;;;;;24.55;63.21;100444.59;5033547;28;1091;-47
2021/08/30 04:31:41;;;;;;;;;;;;;;;24.54;62.85;100448.28;5033425;28;1134;-47
2021/08/30 04:34:07;;;;;;;;;;;;;;;24.56;63.31;100456.22;5033740;28;1081;-47
2021/08/30 04:36:34;;;;;;;;;;;;;;;24.59;62.83;100455.84;5033946;28;1026;-47
2021/08/30 04:39:00;;;;;;;;;;;;;;;24.54;62.72;100447.47;5033670;28;1034;-46
2021/08/30 04:41:28;;;;;;;;;;;;;;;24.59;63.12;100456.72;5033583;28;1059;-47
2021/08/30 04:43:55;;;;;;;;;;;;;;;24.60;62.93;100462.94;5033234;28;1910;-47
2021/08/30 04:46:21;;;;;;;;;;;;;;;24.57;62.82;100464.16;5033609;28;1062;-47
2021/08/30 04:48:48;;;;;;;;;;;;;;;24.57;62.85;100472.28;5033793;28;1085;-47
2021/08/30 04:51:14;;;;;;;;;;;;;;;24.61;62.71;100478.13;5033239;28;1030;-47
2021/08/30 04:53:41;;;;;;;;;;;;;;;24.57;62.72;100466.00;5033284;28;1091;-47
2021/08/30 04:56:07;;;;;;;;;;;;;;;24.60;63.01;100471.91;5033766;28;1045;-47
2021/08/30 04:58:36;;;;;;;;;;;;;;;24.61;63.71;100473.59;5033469;28;1011;-47
2021/08/30 05:01:02;;;;;;;;;;;;;;;24.58;62.67;100479.34;5033022;28;1278;-46
2021/08/30 05:03:29;;;;;;;;;;;;;;;24.59;62.55;100472.94;5033295;28;1926;-47
2021/08/30 05:05:55;;;;;;;;;;;;;;;24.60;62.92;100454.84;5033250;28;1198;-47
2021/08/30 05:08:21;;;;;;;;;;;;;;;24.56;63.08;100473.28;5033092;28;1075;-47
2021/08/30 05:10:48;;;;;;;;;;;;;;;24.58;62.66;100475.81;5033628;28;991;-47
2021/08/30 05:13:15;;;;;;;;;;;;;;;24.58;63.05;100476.66;5033344;28;1003;-47
2021/08/30 05:15:43;;;;;;;;;;;;;;;24.59;62.71;100467.53;5033381;28;1049;-47
2021/08/30 05:18:09;;;;;;;;;;;;;;;24.60;62.66;100477.31;5032915;28;1092;-47
2021/08/30 05:20:35;;;;;;;;;;;;;;;24.60;63.38;100463.78;5032980;28;1075;-46
2021/08/30 05:23:02;;;;;;;;;;;;;;;24.64;62.34;100479.66;5033237;28;1047;-47
2021/08/30 05:25:29;;;;;;;;;;;;;;;24.67;62.40;100471.19;5033055;28;1969;-46
2021/08/30 05:27:55;;;;;;;;;;;;;;;24.68;63.19;100471.00;5036658;28;1095;-47
2021/08/30 05:30:22;;;;;;;;;;;;;;;24.69;62.34;100471.84;5036866;28;1085;-47
2021/08/30 05:32:49;;;;;;;;;;;;;;;24.72;63.14;100466.09;5036565;28;1095;-47
2021/08/30 05:35:16;;;;;;;;;;;;;;;24.68;63.01;100476.41;5036829;28;1078;-47
2021/08/30 05:37:43;;;;;;;;;;;;;;;24.70;62.18;100476.25;5036826;28;998;-47
2021/08/30 05:40:10;;;;;;;;;;;;;;;24.71;62.76;100473.34;5036735;28;1074;-47
2021/08/30 05:42:36;;;;;;;;;;;;;;;24.73;62.19;100481.25;5037336;28;1066;-47
2021/08/30 05:45:03;;;;;;;;;;;;;;;24.73;62.14;100483.97;5036608;28;1906;-47
2021/08/30 05:47:30;;;;;;;;;;;;;;;24.76;62.02;100497.16;5036336;28;1455;-47
2021/08/30 05:49:58;;;;;;;;;;;;;;;24.79;62.13;100494.09;5036555;28;991;-47
2021/08/30 05:52:25;;;;;;;;;;;;;;;24.79;62.44;100480.56;5036246;28;1067;-47
2021/08/30 05:54:52;;;;;;;;;;;;;;;24.82;62.88;100488.31;5036132;28;1087;-47
2021/08/30 05:57:18;;;;;;;;;;;;;;;24.82;62.44;100491.00;5036193;28;1071;-47
2021/08/30 05:59:45;;;;;;;;;;;;;;;24.85;62.34;100487.09;5036099;28;1067;-46
2021/08/30 06:02:11;;;;;;;;;;;;;;;24.86;62.26;100488.78;5035891;28;1262;-46
2021/08/30 06:04:38;;;;;;;;;;;;;;;24.87;62.28;100494.03;5035864;28;1906;-47
2021/08/30 06:07:06;;;;;;;;;;;;;;;24.86;61.83;100488.78;5035961;28;1080;-47
2021/08/30 06:09:32;;;;;;;;;;;;;;;24.87;62.33;100480.50;5036207;28;1074;-46
2021/08/30 06:11:59;;;;;;;;;;;;;;;24.86;61.67;100478.81;5035874;28;1299;-47
2021/08/30 06:14:25;;;;;;;;;;;;;;;24.89;62.21;100478.47;5035824;28;1079;-47
2021/08/30 06:16:52;;;;;;;;;;;;;;;24.90;61.67;100473.88;5036020;28;1085;-47
2021/08/30 06:19:18;;;;;;;;;;;;;;;24.94;61.76;100491.44;5036054;28;1003;-47
2021/08/30 06:21:44;;;;;;;;;;;;;;;24.91;61.96;100486.38;5036027;28;1054;-47
2021/08/30 06:24:12;;;;;;;;;;;;;;;24.91;61.73;100480.97;5036138;28;1902;-47
2021/08/30 06:26:39;;;;;;;;;;;;;;;24.92;61.75;100499.72;5035794;28;1159;-46
2021/08/30 06:29:05;;;;;;;;;;;;;;;24.97;62.32;100510.03;5035790;28;1002;-47
2021/08/30 06:31:32;;;;;;;;;;;;;;;24.98;61.67;100517.94;5035507;28;1096;-47
2021/08/30 06:33:59;;;;;;;;;;;;;;;24.94;62.05;100513.91;5035994;28;1007;-47
2021/08/30 06:36:25;;;;;;;;;;;;;;;24.97;62.56;100512.72;5035705;28;1085;-47
2021/08/30 06:38:52;;;;;;;;;;;;;;;24.93;62.48;100512.22;5034304;28;952;-47
2021/08/30 06:41:20;;;;;;;;;;;;;;;24.94;61.93;100511.19;5035591;28;1055;-47
2021/08/30 06:43:46;;;;;;;;;;;;;;;24.95;62.20;100509.34;5035479;28;1978;-47
2021/08/30 06:46:13;;;;;;;;;;;;;;;24.96;61.94;100509.16;5035258;28;1229;-47
2021/08/30 06:48:39;;;;;;;;;;;;;;;24.96;62.44;100506.44;5035207;28;1127;-47
2021/08/30 06:51:06;;;;;;;;;;;;;;;24.98;62.62;100509.81;5035441;28;1003;-46
2021/08/30 06:53:32;;;;;;;;;;;;;;;24.98;62.24;100520.63;5035803;28;1919;-47
2021/08/30 06:55:58;;;;;;;;;;;;;;;24.93;61.71;100516.78;5035330;28;1089;-46
2021/08/30 06:58:26;;;;;;;;;;;;;;;24.94;62.60;100513.91;5035548;28;1035;-46
2021/08/30 07:00:53;;;;;;;;;;;;;;;24.99;62.22;100525.03;5034812;28;1232;-47
2021/08/30 07:03:19;;;;;;;;;;;;;;;24.95;62.43;100531.00;5035067;28;1339;-47
2021/08/30 07:05:46;;;;;;;;;;;;;;;25.00;62.20;100540.22;5035026;28;1906;-47
2021/08/30 07:08:12;;;;;;;;;;;;;;;24.97;61.69;100524.38;5035073;28;1019;-47
2021/08/30 07:10:39;;;;;;;;;;;;;;;24.96;62.00;100533.50;5034738;28;1177;-47
2021/08/30 07:13:05;;;;;;;;;;;;;;;25.00;62.78;100539.41;5034705;28;959;-47
2021/08/30 07:15:33;;;;;;;;;;;;;;;24.94;61.93;100530.13;5034939;28;1139;-46
2021/08/30 07:18:01;;;;;;;;;;;;;;;24.95;62.06;100537.25;5034974;28;1005;-46
2021/08/30 07:20:28;;;;;;;;;;;;;;;24.95;62.29;100531.84;5034922;28;1105;-47
2021/08/30 07:22:54;;;;;;;;;;;;;;;24.96;62.17;100506.44;5034812;28;990;-46
2021/08/30 07:25:21;;;;;;;;;;;;;;;24.98;62.57;100542.28;5034593;28;1975;-47
2021/08/30 07:27:48;;;;;;;;;;;;;;;24.94;62.42;100522.03;5034713;28;1007;-47
2021/08/30 07:30:15;;;;;;;;;;;;;;;24.96;62.30;100533.50;5034752;28;1094;-47
2021/08/30 07:32:43;;;;;;;;;;;;;;;25.01;62.07;100541.09;5034612;28;1076;-47
2021/08/30 07:35:10;;;;;;;;;;;;;;;24.98;62.40;100544.97;5034568;28;1051;-47
2021/08/30 07:37:37;;;;;;;;;;;;;;;25.01;62.59;100546.50;5034571;28;965;-47
2021/08/30 07:40:04;;;;;;;;;;;;;;;24.99;61.62;100543.97;5034537;28;1070;-47
2021/08/30 07:42:30;;;;;;;;;;;;;;;25.02;62.87;100527.38;5034373;28;1077;-47
2021/08/30 07:44:57;;;;;;;;;;;;;;;25.01;62.63;100541.94;5034383;28;1975;-47
2021/08/30 07:47:23;;;;;;;;;;;;;;;25.01;62.76;100541.94;5034397;28;1107;-47
2021/08/30 07:49:51;;;;;;;;;;;;;;;24.99;62.20;100543.97;5034050;28;994;-47
2021/08/30 07:52:20;;;;;;;;;;;;;;;24.99;62.67;100538.56;5034222;28;1068;-47
2021/08/30 07:54:46;;;;;;;;;;;;;;;25.00;62.19;100542.94;5033930;28;1071;-47
2021/08/30 07:57:13;;;;;;;;;;;;;;;25.02;62.33;100540.06;5033883;28;1075;-47
2021/08/30 07:59:39;;;;;;;;;;;;;;;24.99;61.85;100543.97;5034416;28;1008;-46
2021/08/30 08:02:06;;;;;;;;;;;;;;;25.01;61.80;100541.09;5033825;28;1356;-47
2021/08/30 08:04:32;;;;;;;;;;;;;;;25.06;62.27;100540.53;5034024;28;1976;-46
2021/08/30 08:07:00;;;;;;;;;;;;;;;25.04;61.98;100561.53;5033680;28;1217;-47
2021/08/30 08:09:26;;;;;;;;;;;;;;;25.04;62.41;100534.47;5033721;28;1301;-47
2021/08/30 08:11:53;;;;;;;;;;;;;;;25.05;62.63;100564.06;5033721;28;955;-47
2021/08/30 08:14:19;;;;;;;;;;;;;;;25.06;62.64;100554.06;5034438;28;990;-47
2021/08/30 08:16:46;;;;;;;;;;;;;;;25.05;62.56;100568.59;5033935;28;1046;-46
2021/08/30 08:19:14;;;;;;;;;;;;;;;25.01;62.01;100558.16;5034060;28;1190;-47
2021/08/30 08:21:41;;;;;;;;;;;;;;;25.02;62.33;100553.59;5033867;28;1062;-47
2021/08/30 08:24:10;;;;;;;;;;;;;;;25.01;62.51;100555.44;5034091;28;1004;-47
2021/08/30 08:26:36;;;;;;;;;;;;;;;25.02;62.23;100554.41;5034087;28;2077;-46
2021/08/30 08:29:03;;;;;;;;;;;;;;;25.02;62.70;100554.41;5033709;28;1077;-47
2021/08/30 08:31:30;;;;;;;;;;;;;;;25.02;62.46;100545.47;5033452;28;1071;-46
2021/08/30 08:33:56;;;;;;;;;;;;;;;25.00;62.78;100544.81;5033764;28;1055;-47
2021/08/30 08:36:22;;;;;;;;;;;;;;;25.04;62.76;100545.28;5033699;28;1059;-47
2021/08/30 08:38:49;;;;;;;;;;;;;;;25.05;61.75;100549.66;5033664;28;1043;-47
2021/08/30 08:41:17;;;;;;;;;;;;;;;25.01;62.08;100546.50;5033624;28;1004;-47
2021/08/30 08:43:44;;;;;;;;;;;;;;;25.04;62.58;100534.47;5033853;28;1023;-47
2021/08/30 08:46:10;;;;;;;;;;;;;;;25.06;62.34;100541.38;5033966;28;2065;-47
2021/08/30 08:48:37;;;;;;;;;;;;;;;25.07;61.68;100550.31;5033301;28;1158;-47
2021/08/30 08:51:03;;;;;;;;;;;;;;;25.07;62.43;100550.31;5033558;28;1102;-47
2021/08/30 08:53:30;;;;;;;;;;;;;;;25.06;61.66;100546.78;5033460;28;1023;-47
2021/08/30 08:55:56;;;;;;;;;;;;;;;25.06;61.70;100532.44;5033240;28;1103;-47
2021/08/30 08:58:24;;;;;;;;;;;;;;;25.07;62.73;100540.38;5033462;28;1077;-47
2021/08/30 09:01:01;;;;;;;;;;;;;;;25.08;62.70;100543.91;5033991;28;1084;-47
2021/08/30 09:03:27;;;;;;;;;;;;;;;25.05;62.62;100537.00;5037038;28;1460;-47
2021/08/30 09:06:00;;;;;;;;;;;;;;;25.07;61.88;100545.78;5037117;28;1977;-47
2021/08/30 09:08:29;;;;;;;;;;;;;;;25.05;62.12;100528.88;5037040;28;1095;-47
2021/08/30 09:10:55;;;;;;;;;;;;;;;25.05;62.29;100541.53;5037025;28;1110;-47
2021/08/30 09:13:28;;;;;;;;;;;;;;;25.04;62.02;100546.13;5037272;28;1059;-46
2021/08/30 09:15:54;;;;;;;;;;;;;;;25.04;62.19;100538.00;5037245;28;1066;-47
2021/08/30 09:18:23;;;;;;;;;;;;;;;25.04;62.82;100546.13;5037158;28;2049;-47
2021/08/30 09:20:50;;;;;;;;;;;;;;;25.02;62.05;100554.41;5037128;28;1102;-47
2021/08/30 09:23:16;;;;;;;;;;;;;;;25.04;62.32;100534.47;5036708;28;1163;-47
2021/08/30 09:25:43;;;;;;;;;;;;;;;25.04;62.09;100534.47;5036657;28;1902;-47
2021/08/30 09:28:10;;;;;;;;;;;;;;;25.09;62.22;100534.75;5037518;28;1951;-47
2021/08/30 09:30:38;;;;;;;;;;;;;;;25.06;61.89;100548.66;5036921;28;998;-47
2021/08/30 09:33:04;;;;;;;;;;;;;;;25.08;62.66;100549.31;5037180;28;1126;-47
2021/08/30 09:35:31;;;;;;;;;;;;;;;25.05;62.55;100547.81;5036608;28;1225;-47
2021/08/30 09:37:58;;;;;;;;;;;;;;;25.10;62.78;100533.75;5036532;28;1099;-47
2021/08/30 09:40:27;;;;;;;;;;;;;;;25.09;62.61;100532.03;5036499;28;1087;-46
2021/08/30 09:42:57;;;;;;;;;;;;;;;25.10;62.67;100531.03;5036382;28;1139;-46
2021/08/30 09:45:25;;;;;;;;;;;;;;;25.08;62.30;100533.09;5036862;28;1967;-46
2021/08/30 09:47:55;;;;;;;;;;;;;;;25.09;62.08;100550.97;5036903;28;1084;-46
2021/08/30 09:50:27;;;;;;;;;;;;;;;25.06;62.02;100533.25;5036317;28;1138;-46
2021/08/30 09:52:54;;;;;;;;;;;;;;;25.08;62.62;100533.09;5036561;28;1031;-46
2021/08/30 09:55:20;;;;;;;;;;;;;;;25.07;62.22;100525.97;5036189;28;1111;-46
2021/08/30 09:57:50;;;;;;;;;;;;;;;25.09;62.39;100532.03;5036706;28;1086;-47
2021/08/30 10:00:17;;;;;;;;;;;;;;;25.08;62.43;100530.38;5036386;28;1029;-47
2021/08/30 10:02:46;;;;;;;;;;;;;;;25.09;61.90;100526.63;5035858;28;1755;-47
2021/08/30 10:05:15;;;;;;;;;;;;;;;25.11;61.50;100530.00;5036423;28;1905;-47
2021/08/30 10:07:43;;;;;;;;;;;;;;;25.11;61.97;100530.00;5036330;28;990;-47
2021/08/30 10:10:10;;;;;;;;;;;;;;;25.11;62.38;100519.16;5036243;28;1158;-46
2021/08/30 10:12:37;;;;;;;;;;;;;;;25.13;62.08;100519.88;5036043;28;962;-47
2021/08/30 10:15:04;;;;;;;;;;;;;;;25.15;61.41;100531.34;5035833;28;1130;-47
2021/08/30 10:17:31;;;;;;;;;;;;;;;25.12;62.35;100529.00;5036013;28;1082;-47
2021/08/30 10:19:58;;;;;;;;;;;;;;;25.13;62.54;100527.97;5036050;28;1077;-47
2021/08/30 10:22:26;;;;;;;;;;;;;;;25.11;62.42;100522.75;5035999;28;1113;-47
2021/08/30 10:24:53;;;;;;;;;;;;;;;25.14;62.08;100529.66;5035541;28;1985;-47
2021/08/30 10:27:30;;;;;;;;;;;;;;;25.13;61.91;100542.34;5035912;28;1052;-46
2021/08/30 10:30:05;;;;;;;;;;;;;;;25.17;61.59;100532.00;5035642;28;1055;-47
2021/08/30 10:32:37;;;;;;;;;;;;;;;25.16;62.10;100535.72;5035786;28;1027;-47
2021/08/30 10:35:11;;;;;;;;;;;;;;;25.12;62.35;100519.00;5035769;28;1039;-47
2021/08/30 10:37:47;;;;;;;;;;;;;;;25.12;62.38;100526.28;5035769;28;1023;-46
2021/08/30 10:40:15;;;;;;;;;;;;;;;25.15;62.42;100525.94;5035650;28;1050;-47
2021/08/30 10:42:41;;;;;;;;;;;;;;;25.18;62.06;100536.38;5035553;28;1089;-47
2021/08/30 10:45:08;;;;;;;;;;;;;;;25.12;62.56;100526.28;5035511;28;1906;-47
2021/08/30 10:47:36;;;;;;;;;;;;;;;25.15;62.23;100523.22;5035502;28;992;-46
2021/08/30 10:50:03;;;;;;;;;;;;;;;25.14;62.58;100538.59;5035465;28;1081;-47
2021/08/30 10:52:37;;;;;;;;;;;;;;;25.13;62.29;100527.97;5035422;28;1050;-47
2021/08/30 10:55:14;;;;;;;;;;;;;;;25.14;62.56;100526.94;5035757;28;1072;-47
2021/08/30 10:57:41;;;;;;;;;;;;;;;25.13;62.55;100517.16;5035339;28;1052;-47
2021/08/30 11:00:08;;;;;;;;;;;;;;;25.15;62.01;100528.63;5034968;28;1059;-47
2021/08/30 11:02:36;;;;;;;;;;;;;;;25.16;62.13;100533.00;5034732;28;1308;-47
2021/08/30 11:05:03;;;;;;;;;;;;;;;25.17;62.46;100529.28;5035093;28;1971;-47
2021/08/30 11:07:29;;;;;;;;;;;;;;;25.17;62.62;100523.88;5034772;28;1270;-46
2021/08/30 11:09:56;;;;;;;;;;;;;;;25.17;62.06;100540.13;5035119;28;1003;-46
2021/08/30 11:12:24;;;;;;;;;;;;;;;25.18;62.46;100537.22;5035384;28;1178;-46
2021/08/30 11:14:54;;;;;;;;;;;;;;;25.12;62.35;100527.13;5034977;28;1063;-47
2021/08/30 11:17:26;;;;;;;;;;;;;;;25.17;62.21;100523.88;5034862;28;1062;-47
2021/08/30 11:19:54;;;;;;;;;;;;;;;25.15;62.53;100528.63;5034822;28;1150;-47
2021/08/30 11:22:20;;;;;;;;;;;;;;;25.16;62.21;100533.00;5034785;28;1081;-47
2021/08/30 11:24:47;;;;;;;;;;;;;;;25.12;62.56;100523.56;5034283;28;1003;-46
2021/08/30 11:27:14;;;;;;;;;;;;;;;25.14;62.65;100524.25;5034664;28;1906;-47
2021/08/30 11:29:43;;;;;;;;;;;;;;;25.13;62.50;100514.44;5034708;28;1089;-47
2021/08/30 11:32:09;;;;;;;;;;;;;;;25.14;62.62;100530.47;5034382;28;1167;-47
2021/08/30 11:34:37;;;;;;;;;;;;;;;25.14;62.31;100513.41;5034344;28;1127;-47
2021/08/30 11:37:05;;;;;;;;;;;;;;;25.15;62.63;100525.94;5034581;28;1059;-47
2021/08/30 11:39:32;;;;;;;;;;;;;;;25.15;62.37;100539.47;5034242;28;1099;-46
2021/08/30 11:42:00;;;;;;;;;;;;;;;25.16;62.60;100524.91;5034329;28;1114;-47
2021/08/30 11:44:29;;;;;;;;;;;;;;;25.18;62.59;100514.72;5034441;28;996;-47
2021/08/30 11:46:57;;;;;;;;;;;;;;;25.17;62.42;100516.59;5034317;28;1975;-47
2021/08/30 11:49:25;;;;;;;;;;;;;;;25.16;62.33;100522.19;5034366;28;1085;-47
2021/08/30 11:51:53;;;;;;;;;;;;;;;25.20;62.18;100509.97;5034307;28;1006;-47
2021/08/30 11:54:20;;;;;;;;;;;;;;;25.15;62.42;100510.53;5034215;28;1105;-47
2021/08/30 11:56:53;;;;;;;;;;;;;;;25.17;62.54;100513.91;5034232;28;1081;-47
2021/08/30 11:59:30;;;;;;;;;;;;;;;25.19;62.53;100519.13;5033915;28;1150;-47
2021/08/30 12:01:58;;;;;;;;;;;;;;;25.20;62.57;100520.78;5033749;28;1377;-46
2021/08/30 12:04:27;;;;;;;;;;;;;;;25.18;62.60;100517.44;5033822;28;1079;-47
2021/08/30 12:06:54;;;;;;;;;;;;;;;25.14;62.42;100506.13;5033630;28;1976;-47
2021/08/30 12:09:21;;;;;;;;;;;;;;;25.18;61.96;100526.38;5034277;28;1066;-47
2021/08/30 12:11:49;;;;;;;;;;;;;;;25.18;62.70;100520.13;5034033;28;1003;-47
2021/08/30 12:14:16;;;;;;;;;;;;;;;25.15;62.21;100515.09;5034025;28;995;-47
2021/08/30 12:16:43;;;;;;;;;;;;;;;25.17;62.34;100502.25;5034471;28;1074;-47
2021/08/30 12:19:12;;;;;;;;;;;;;;;25.18;62.42;100503.91;5033775;28;1047;-47
2021/08/30 12:21:40;;;;;;;;;;;;;;;25.15;62.62;100505.13;5033848;28;1218;-47
2021/08/30 12:24:07;;;;;;;;;;;;;;;25.14;61.97;100497.19;5033537;28;1083;-47
2021/08/30 12:26:35;;;;;;;;;;;;;;;25.14;61.87;100491.75;5033431;28;1902;-47
2021/08/30 12:29:01;;;;;;;;;;;;;;;25.18;62.34;100503.91;5033772;28;1008;-47
2021/08/30 12:31:31;;;;;;;;;;;;;;;25.13;61.64;100490.94;5033703;28;1008;-47
2021/08/30 12:34:01;;;;;;;;;;;;;;;25.15;62.21;100482.63;5033442;28;1044;-47
2021/08/30 12:36:29;;;;;;;;;;;;;;;25.14;62.34;100503.41;5032799;28;1178;-47
2021/08/30 12:38:55;;;;;;;;;;;;;;;25.11;62.04;100497.53;5033677;28;1003;-47
2021/08/30 12:41:22;;;;;;;;;;;;;;;25.12;62.23;100488.41;5033275;28;1135;-48
2021/08/30 12:43:48;;;;;;;;;;;;;;;25.14;62.80;100492.59;5033712;28;1082;-47
2021/08/30 12:46:15;;;;;;;;;;;;;;;25.14;62.01;100502.59;5033809;28;1973;-47
2021/08/30 12:48:41;;;;;;;;;;;;;;;25.13;62.88;100490.94;5033601;28;1085;-47
2021/08/30 12:51:08;;;;;;;;;;;;;;;25.09;62.46;100489.63;5033281;28;1080;-47